Time;durP1;ratioP1;P1;durP2;ratioP2;P2;SDS_P1;SDS_P2;PMS_P1;PMS_P2;Temp;Humidity;BMP_temperature;BMP_pressure;BME280_temperature;BME280_humidity;BME280_pressure;Samples;Min_cycle;Max_cycle;Signal;HPM_P1;HPM_P2
2023/07/23 00:02:06;;;;;;;7.33;6.83;;;17.50;59.00;;;;;;6271344;28;20231;-82
2023/07/23 00:05:10;;;;;;;7.40;6.90;;;17.50;59.20;;;;;;6263509;28;20246;-80
2023/07/23 00:08:13;;;;;;;8.20;7.53;;;17.50;59.20;;;;;;6277267;28;20241;-81
2023/07/23 00:11:18;;;;;;;7.53;7.00;;;17.50;59.00;;;;;;6281073;28;20249;-83
2023/07/23 00:14:21;;;;;;;7.33;6.90;;;17.50;59.00;;;;;;6264103;28;20883;-82
2023/07/23 00:17:25;;;;;;;7.60;7.10;;;17.50;58.70;;;;;;6281011;28;20690;-81
2023/07/23 00:20:28;;;;;;;7.83;7.23;;;17.50;58.50;;;;;;6268169;28;20231;-80
2023/07/23 00:23:31;;;;;;;7.30;6.63;;;17.50;58.40;;;;;;6264259;28;20237;-80
2023/07/23 00:26:36;;;;;;;7.00;6.50;;;17.50;58.20;;;;;;6255113;28;20837;-80
2023/07/23 00:29:39;;;;;;;7.47;6.90;;;17.50;58.40;;;;;;6248756;28;20371;-80
2023/07/23 00:32:42;;;;;;;7.43;6.73;;;17.50;58.30;;;;;;6258645;28;20392;-79
2023/07/23 00:35:45;;;;;;;7.50;7.00;;;17.50;58.00;;;;;;6272843;28;20234;-79
2023/07/23 00:38:48;;;;;;;7.30;6.87;;;17.50;58.30;;;;;;6263939;28;20676;-81
2023/07/23 00:41:53;;;;;;;7.33;6.73;;;17.50;58.30;;;;;;6250395;28;20795;-80
2023/07/23 00:44:56;;;;;;;7.17;6.57;;;17.50;58.40;;;;;;6264647;28;20321;-80
2023/07/23 00:48:00;;;;;;;7.57;7.10;;;17.50;58.00;;;;;;6263060;28;20784;-81
2023/07/23 00:51:03;;;;;;;7.43;6.73;;;17.50;58.40;;;;;;6253904;28;20289;-81
2023/07/23 00:54:07;;;;;;;6.03;5.73;;;17.50;58.50;;;;;;6284130;28;20969;-81
2023/07/23 00:57:12;;;;;;;7.13;6.73;;;17.40;58.70;;;;;;6269154;28;20307;-82
2023/07/23 01:00:16;;;;;;;6.73;6.33;;;17.40;58.70;;;;;;6274715;28;24791;-81
2023/07/23 01:03:19;;;;;;;6.47;6.00;;;17.50;58.50;;;;;;6274553;28;20257;-82
2023/07/23 01:06:25;;;;;;;7.57;7.07;;;17.50;58.30;;;;;;6272663;28;20242;-81
2023/07/23 01:09:28;;;;;;;7.10;6.50;;;17.40;58.40;;;;;;6269145;28;20237;-82
2023/07/23 01:12:34;;;;;;;7.87;7.03;;;17.40;58.60;;;;;;6277557;28;20643;-81
2023/07/23 01:15:37;;;;;;;6.80;6.40;;;17.40;59.00;;;;;;6246997;28;20382;-81
2023/07/23 01:18:41;;;;;;;7.03;6.53;;;17.40;58.50;;;;;;6272686;28;20230;-80
2023/07/23 01:21:44;;;;;;;6.83;6.47;;;17.40;58.90;;;;;;6261534;28;20570;-82
2023/07/23 01:24:49;;;;;;;6.60;6.20;;;17.40;58.80;;;;;;6275905;28;20610;-80
2023/07/23 01:27:52;;;;;;;6.80;6.40;;;17.40;59.00;;;;;;6269839;28;20241;-80
2023/07/23 01:30:56;;;;;;;7.30;6.47;;;17.40;59.20;;;;;;6282859;28;20252;-80
2023/07/23 01:34:05;;;;;;;7.53;6.87;;;17.40;59.50;;;;;;6277689;28;20719;-81
2023/07/23 01:37:10;;;;;;;8.20;6.80;;;17.30;59.30;;;;;;6278633;28;20237;-80
2023/07/23 01:40:15;;;;;;;7.07;6.67;;;17.20;59.30;;;;;;6279070;28;20377;-79
2023/07/23 01:43:19;;;;;;;6.83;6.23;;;17.20;59.70;;;;;;6250489;28;20234;-82
2023/07/23 01:46:22;;;;;;;6.60;6.20;;;17.20;59.70;;;;;;6269314;28;20322;-82
2023/07/23 01:49:25;;;;;;;6.57;6.17;;;17.20;60.10;;;;;;6246942;28;20723;-81
2023/07/23 01:52:28;;;;;;;6.27;5.97;;;17.20;60.20;;;;;;6258018;28;20242;-84
2023/07/23 01:55:33;;;;;;;7.50;7.00;;;17.20;60.30;;;;;;6270976;28;20995;-80
2023/07/23 01:58:36;;;;;;;7.23;6.80;;;17.00;61.50;;;;;;6272799;28;20228;-80
2023/07/23 02:01:39;;;;;;;7.30;6.70;;;17.00;61.50;;;;;;6259840;28;20777;-82
2023/07/23 02:04:42;;;;;;;7.17;6.70;;;16.90;62.40;;;;;;6253902;28;20255;-79
2023/07/23 02:07:45;;;;;;;7.23;6.73;;;16.80;62.80;;;;;;6279238;28;20259;-81
2023/07/23 02:10:50;;;;;;;6.97;6.57;;;16.80;62.80;;;;;;6267103;28;20237;-82
2023/07/23 02:13:53;;;;;;;7.93;7.17;;;16.80;63.10;;;;;;6279734;28;20244;-80
2023/07/23 02:16:56;;;;;;;7.80;7.20;;;16.70;63.40;;;;;;6270439;28;20795;-81
2023/07/23 02:20:00;;;;;;;7.17;6.77;;;16.60;64.10;;;;;;6269272;28;20239;-82
2023/07/23 02:23:03;;;;;;;7.70;7.10;;;16.60;64.30;;;;;;6253646;28;20241;-80
2023/07/23 02:26:07;;;;;;;7.40;7.00;;;16.50;65.10;;;;;;6244089;28;20229;-80
2023/07/23 02:29:10;;;;;;;7.67;7.13;;;16.50;65.30;;;;;;6276376;28;20229;-82
2023/07/23 02:32:13;;;;;;;6.80;6.30;;;16.40;65.10;;;;;;6273198;28;20600;-78
2023/07/23 02:35:17;;;;;;;7.47;6.93;;;16.40;65.10;;;;;;6274559;28;20237;-81
2023/07/23 02:38:20;;;;;;;8.23;7.67;;;16.40;65.20;;;;;;6263523;28;20268;-82
2023/07/23 02:41:24;;;;;;;7.67;7.10;;;16.30;66.20;;;;;;6262148;28;20875;-80
2023/07/23 02:44:28;;;;;;;6.80;6.40;;;16.30;66.30;;;;;;6254314;28;20373;-81
2023/07/23 02:47:31;;;;;;;7.77;7.37;;;16.20;66.30;;;;;;6268649;28;20242;-80
2023/07/23 02:50:34;;;;;;;8.00;7.30;;;16.20;66.90;;;;;;6261570;28;20245;-80
2023/07/23 02:53:37;;;;;;;7.93;7.37;;;16.20;67.00;;;;;;6261526;28;20249;-79
2023/07/23 02:56:42;;;;;;;7.33;6.73;;;16.10;67.60;;;;;;6284301;28;20308;-83
2023/07/23 02:59:45;;;;;;;8.13;7.13;;;16.10;67.60;;;;;;6286087;28;20240;-81
2023/07/23 03:02:49;;;;;;;7.93;7.33;;;16.00;67.80;;;;;;6279438;28;20274;-79
2023/07/23 03:05:52;;;;;;;7.57;7.17;;;16.00;68.00;;;;;;6262227;28;20664;-81
2023/07/23 03:08:55;;;;;;;7.07;6.77;;;16.10;68.00;;;;;;6251591;28;20641;-82
2023/07/23 03:11:59;;;;;;;7.37;6.90;;;16.00;68.20;;;;;;6264518;28;20357;-80
2023/07/23 03:15:03;;;;;;;8.20;7.60;;;16.00;68.70;;;;;;6276244;28;20253;-82
2023/07/23 03:18:06;;;;;;;8.90;8.13;;;16.00;68.90;;;;;;6271583;28;20264;-82
2023/07/23 03:21:09;;;;;;;7.07;6.60;;;16.00;69.00;;;;;;6248019;28;20257;-82
2023/07/23 03:24:12;;;;;;;8.27;7.77;;;16.00;69.10;;;;;;6248083;28;20383;-79
2023/07/23 03:27:17;;;;;;;7.47;6.87;;;16.00;69.20;;;;;;6274134;28;20234;-81
2023/07/23 03:30:20;;;;;;;9.30;8.47;;;15.90;69.80;;;;;;6265638;28;20745;-80
2023/07/23 03:33:23;;;;;;;8.70;7.80;;;15.80;70.20;;;;;;6249471;28;20714;-77
2023/07/23 03:36:27;;;;;;;9.17;8.57;;;15.80;70.00;;;;;;6256660;28;20221;-78
2023/07/23 03:39:30;;;;;;;8.53;7.93;;;15.80;70.10;;;;;;6250522;28;20233;-78
2023/07/23 03:42:35;;;;;;;8.43;7.63;;;15.80;69.80;;;;;;6263729;28;20615;-80
2023/07/23 03:45:38;;;;;;;8.63;8.03;;;15.80;69.80;;;;;;6267713;28;20282;-78
2023/07/23 03:48:41;;;;;;;8.87;8.27;;;15.80;69.50;;;;;;6259853;28;20590;-79
2023/07/23 03:51:44;;;;;;;9.43;8.73;;;15.80;69.40;;;;;;6264604;28;20342;-78
2023/07/23 03:54:47;;;;;;;9.37;8.67;;;15.80;69.70;;;;;;6263961;28;20302;-78
2023/07/23 03:57:52;;;;;;;9.07;8.47;;;15.80;69.80;;;;;;6256618;28;20249;-77
2023/07/23 04:00:55;;;;;;;8.10;7.60;;;15.80;69.60;;;;;;6248933;28;21504;-77
2023/07/23 04:03:59;;;;;;;8.83;8.20;;;15.80;69.50;;;;;;6251949;28;20730;-78
2023/07/23 04:07:03;;;;;;;8.33;7.63;;;15.80;69.50;;;;;;6255948;28;20238;-78
2023/07/23 04:10:07;;;;;;;7.27;6.77;;;15.80;69.40;;;;;;6255534;28;20320;-79
2023/07/23 04:13:11;;;;;;;8.17;7.57;;;15.90;69.30;;;;;;6252005;28;20234;-78
2023/07/23 04:16:14;;;;;;;8.93;8.10;;;16.00;69.30;;;;;;6256385;28;20262;-78
2023/07/23 04:19:18;;;;;;;8.27;7.67;;;16.00;69.60;;;;;;6262788;28;20230;-76
2023/07/23 04:22:21;;;;;;;9.53;8.63;;;16.00;69.80;;;;;;6257284;28;20234;-78
2023/07/23 04:25:24;;;;;;;9.67;8.97;;;16.10;70.20;;;;;;6264547;28;20260;-79
2023/07/23 04:28:29;;;;;;;9.63;8.90;;;16.10;70.20;;;;;;6259298;28;20226;-78
2023/07/23 04:31:32;;;;;;;9.03;8.43;;;16.00;70.50;;;;;;6269568;28;20292;-78
2023/07/23 04:34:36;;;;;;;9.00;8.20;;;16.10;70.30;;;;;;6269920;28;20251;-78
2023/07/23 04:37:39;;;;;;;9.00;8.40;;;16.10;70.50;;;;;;6264366;28;20290;-78
2023/07/23 04:40:42;;;;;;;9.57;8.77;;;16.10;70.50;;;;;;6260540;28;20248;-78
2023/07/23 04:43:47;;;;;;;8.93;8.40;;;16.20;70.40;;;;;;6252990;28;20740;-77
2023/07/23 04:46:50;;;;;;;10.63;9.63;;;16.10;70.40;;;;;;6254257;28;20843;-78
2023/07/23 04:49:53;;;;;;;10.13;9.33;;;16.20;70.30;;;;;;6274981;28;20315;-79
2023/07/23 04:52:57;;;;;;;9.43;8.77;;;16.20;70.10;;;;;;6261741;28;20242;-78
2023/07/23 04:56:02;;;;;;;10.27;9.37;;;16.20;70.10;;;;;;6255082;28;20234;-76
2023/07/23 04:59:07;;;;;;;9.43;8.70;;;16.20;70.70;;;;;;6264664;28;20233;-78
2023/07/23 05:02:11;;;;;;;9.00;8.37;;;16.30;70.80;;;;;;6265259;28;20241;-78
2023/07/23 05:05:14;;;;;;;9.13;8.33;;;16.30;71.00;;;;;;6259004;28;20321;-79
2023/07/23 05:08:17;;;;;;;8.80;8.20;;;16.20;70.80;;;;;;6260643;28;20238;-79
2023/07/23 05:11:20;;;;;;;9.40;8.70;;;16.20;70.90;;;;;;6256072;28;20480;-78
2023/07/23 05:14:25;;;;;;;9.80;8.90;;;16.20;70.80;;;;;;6261451;28;20906;-78
2023/07/23 05:17:28;;;;;;;9.83;9.10;;;16.30;70.90;;;;;;6266561;28;20238;-78
2023/07/23 05:20:31;;;;;;;9.67;8.90;;;16.30;71.00;;;;;;6248053;28;20230;-78
2023/07/23 05:23:34;;;;;;;9.73;8.80;;;16.30;71.20;;;;;;6251630;28;20276;-80
2023/07/23 05:26:37;;;;;;;9.43;8.63;;;16.40;70.80;;;;;;6259333;28;20733;-78
2023/07/23 05:29:42;;;;;;;8.93;8.23;;;16.40;70.70;;;;;;6263374;28;20332;-77
2023/07/23 05:32:45;;;;;;;9.63;8.93;;;16.50;70.80;;;;;;6267081;28;20262;-79
2023/07/23 05:35:48;;;;;;;10.00;9.20;;;16.50;70.80;;;;;;6263776;28;20226;-77
2023/07/23 05:38:51;;;;;;;9.70;9.00;;;16.50;70.80;;;;;;6259014;28;20238;-77
2023/07/23 05:41:54;;;;;;;10.17;9.13;;;16.60;71.10;;;;;;6251102;28;20234;-78
2023/07/23 05:44:59;;;;;;;9.90;9.20;;;16.60;71.10;;;;;;6273715;28;20241;-78
2023/07/23 05:48:02;;;;;;;9.17;8.47;;;16.60;70.90;;;;;;6259139;28;20256;-76
2023/07/23 05:51:05;;;;;;;10.17;9.13;;;16.50;70.90;;;;;;6248544;28;20241;-78
2023/07/23 05:54:09;;;;;;;8.67;8.07;;;16.70;70.70;;;;;;6256188;28;20270;-79
2023/07/23 05:57:12;;;;;;;8.90;8.30;;;16.90;70.40;;;;;;6260743;28;20365;-79
2023/07/23 06:00:17;;;;;;;8.30;7.60;;;17.10;69.90;;;;;;6264355;28;20254;-78
2023/07/23 06:03:20;;;;;;;8.73;8.13;;;17.30;69.30;;;;;;6256205;28;20749;-78
2023/07/23 06:06:24;;;;;;;9.77;8.97;;;17.50;69.00;;;;;;6259445;28;20241;-77
2023/07/23 06:09:27;;;;;;;8.90;8.20;;;17.50;68.70;;;;;;6259717;28;20249;-77
2023/07/23 06:12:30;;;;;;;8.47;7.87;;;17.70;68.60;;;;;;6256328;28;20237;-77
2023/07/23 06:15:35;;;;;;;9.83;8.93;;;17.60;68.50;;;;;;6254001;28;20233;-78
2023/07/23 06:18:38;;;;;;;9.37;8.77;;;17.80;67.90;;;;;;6258510;28;20235;-77
2023/07/23 06:21:41;;;;;;;9.50;8.77;;;18.00;68.20;;;;;;6264018;28;20237;-78
2023/07/23 06:24:44;;;;;;;8.47;7.87;;;18.10;67.20;;;;;;6264702;28;20232;-77
2023/07/23 06:27:48;;;;;;;7.63;7.17;;;18.40;66.70;;;;;;6257876;28;20242;-78
2023/07/23 06:30:53;;;;;;;8.70;8.00;;;18.90;66.40;;;;;;6261859;28;20241;-78
2023/07/23 06:33:56;;;;;;;8.13;7.50;;;19.10;64.30;;;;;;6261659;28;20321;-79
2023/07/23 06:36:59;;;;;;;8.13;7.50;;;19.30;64.70;;;;;;6255986;28;20227;-80
2023/07/23 06:40:02;;;;;;;7.33;6.93;;;19.50;64.40;;;;;;6266849;28;20261;-79
2023/07/23 06:43:05;;;;;;;8.50;7.90;;;19.60;63.90;;;;;;6264194;28;20901;-78
2023/07/23 06:46:16;;;;;;;7.83;7.23;;;19.60;63.70;;;;;;6265682;28;20252;-78
2023/07/23 06:49:22;;;;;;;8.33;7.57;;;19.50;62.80;;;;;;6272866;28;20251;-79
2023/07/23 06:52:25;;;;;;;7.67;7.27;;;19.50;63.10;;;;;;6227901;28;20249;-79
2023/07/23 06:55:28;;;;;;;8.67;7.90;;;19.40;63.60;;;;;;6268747;28;20759;-79
2023/07/23 06:58:33;;;;;;;8.33;7.60;;;19.50;63.30;;;;;;6247094;28;20238;-81
2023/07/23 07:01:37;;;;;;;7.70;7.07;;;19.40;63.70;;;;;;6256458;28;20257;-79
2023/07/23 07:04:40;;;;;;;7.50;7.00;;;19.50;64.00;;;;;;6280065;28;20226;-77
2023/07/23 07:07:43;;;;;;;8.13;7.53;;;19.80;63.80;;;;;;6260579;28;20328;-80
2023/07/23 07:10:47;;;;;;;7.37;6.63;;;20.30;62.40;;;;;;6264647;28;20253;-81
2023/07/23 07:13:51;;;;;;;8.70;7.97;;;20.60;61.40;;;;;;6274937;28;20232;-79
2023/07/23 07:16:55;;;;;;;8.10;7.60;;;20.50;61.10;;;;;;6266140;28;20738;-78
2023/07/23 07:19:58;;;;;;;7.70;7.17;;;20.30;61.00;;;;;;6258214;28;20800;-79
2023/07/23 07:23:02;;;;;;;8.53;7.93;;;20.30;61.60;;;;;;6270724;28;20249;-78
2023/07/23 07:26:06;;;;;;;8.03;7.30;;;20.40;61.60;;;;;;6258934;28;20276;-78
2023/07/23 07:29:09;;;;;;;8.63;7.83;;;20.50;61.30;;;;;;6276477;28;20249;-78
2023/07/23 07:32:13;;;;;;;7.97;7.27;;;20.70;61.10;;;;;;6270255;28;20325;-78
2023/07/23 07:35:17;;;;;;;7.37;6.77;;;20.80;60.50;;;;;;6250156;28;20245;-78
2023/07/23 07:38:20;;;;;;;7.60;6.90;;;20.90;60.30;;;;;;6269971;28;20298;-78
2023/07/23 07:41:23;;;;;;;7.17;6.67;;;20.80;59.60;;;;;;6275194;28;20246;-78
2023/07/23 07:44:26;;;;;;;7.40;6.93;;;20.70;59.60;;;;;;6258641;28;20239;-77
2023/07/23 07:47:31;;;;;;;7.07;6.57;;;20.90;59.30;;;;;;6271792;28;20292;-78
2023/07/23 07:50:34;;;;;;;6.93;6.47;;;21.00;59.00;;;;;;6265409;28;20262;-77
2023/07/23 07:53:38;;;;;;;7.17;6.67;;;21.20;59.20;;;;;;6268482;28;20247;-77
2023/07/23 07:56:43;;;;;;;6.10;5.87;;;21.10;58.00;;;;;;6256210;28;20227;-79
2023/07/23 07:59:46;;;;;;;6.70;6.30;;;21.10;57.50;;;;;;6255389;28;20299;-76
2023/07/23 08:02:52;;;;;;;6.53;6.13;;;21.30;58.00;;;;;;6225085;28;20247;-77
2023/07/23 08:05:56;;;;;;;8.17;7.53;;;21.50;56.90;;;;;;6249867;28;20242;-77
2023/07/23 08:09:02;;;;;;;6.60;6.20;;;21.50;57.10;;;;;;6242524;28;20381;-76
2023/07/23 08:12:07;;;;;;;6.00;5.70;;;21.50;56.90;;;;;;6230252;28;20302;-78
2023/07/23 08:15:11;;;;;;;5.40;5.13;;;21.30;57.30;;;;;;6223491;28;20762;-77
2023/07/23 08:18:16;;;;;;;6.00;5.70;;;21.00;56.80;;;;;;6237006;28;20334;-78
2023/07/23 08:21:20;;;;;;;6.10;5.80;;;20.90;57.20;;;;;;6239313;28;20887;-79
2023/07/23 08:24:24;;;;;;;6.10;5.70;;;20.90;57.10;;;;;;6233560;28;20241;-78
2023/07/23 08:27:29;;;;;;;6.03;5.73;;;21.00;57.30;;;;;;6225996;28;20231;-79
2023/07/23 08:30:33;;;;;;;6.33;5.87;;;20.80;57.60;;;;;;6239950;28;20293;-79
2023/07/23 08:33:39;;;;;;;6.20;5.80;;;20.80;57.90;;;;;;6229018;28;20290;-77
2023/07/23 08:36:44;;;;;;;6.07;5.67;;;20.90;57.80;;;;;;6236448;28;20323;-78
2023/07/23 08:39:47;;;;;;;5.60;5.33;;;21.10;57.30;;;;;;6237234;28;20239;-77
2023/07/23 08:43:46;;;;;;;5.87;5.40;;;21.30;57.80;;;;;;6237621;28;20328;-77
2023/07/23 08:46:49;;;;;;;5.90;5.60;;;21.20;57.10;;;;;;6236726;28;20242;-77
2023/07/23 08:49:54;;;;;;;6.53;6.10;;;21.40;56.80;;;;;;6234631;28;20372;-78
2023/07/23 08:52:57;;;;;;;6.93;6.27;;;21.50;56.70;;;;;;6241384;28;20296;-79
2023/07/23 08:56:01;;;;;;;6.43;5.40;;;21.60;56.80;;;;;;6237847;28;20323;-76
2023/07/23 08:59:05;;;;;;;6.57;6.07;;;21.70;56.00;;;;;;6244816;28;20270;-77
2023/07/23 09:02:11;;;;;;;6.00;5.60;;;21.70;56.20;;;;;;6234274;28;20246;-77
2023/07/23 09:05:16;;;;;;;5.87;5.47;;;21.80;56.40;;;;;;6230128;28;20479;-78
2023/07/23 09:08:21;;;;;;;5.57;5.17;;;21.70;55.50;;;;;;6236929;28;20317;-78
2023/07/23 09:11:24;;;;;;;5.63;5.30;;;21.80;54.70;;;;;;6239364;28;20349;-78
2023/07/23 09:14:27;;;;;;;5.80;4.73;;;22.00;54.30;;;;;;6226180;28;20463;-77
2023/07/23 09:17:30;;;;;;;5.30;5.00;;;22.10;55.00;;;;;;6235303;28;20340;-78
2023/07/23 09:20:35;;;;;;;5.73;5.30;;;22.50;53.70;;;;;;6233262;28;20265;-78
2023/07/23 09:23:38;;;;;;;5.90;5.40;;;22.60;53.00;;;;;;6233860;28;20259;-79
2023/07/23 09:26:41;;;;;;;5.97;5.47;;;22.80;52.90;;;;;;6239549;28;20326;-76
2023/07/23 09:29:47;;;;;;;5.60;5.33;;;23.00;54.00;;;;;;6229850;28;20267;-78
2023/07/23 09:32:57;;;;;;;6.03;5.73;;;22.90;53.00;;;;;;6241331;28;20237;-77
2023/07/23 09:36:03;;;;;;;6.43;5.83;;;23.00;53.20;;;;;;6241209;28;20237;-78
2023/07/23 09:39:07;;;;;;;5.87;5.57;;;23.10;52.50;;;;;;6234847;28;20227;-76
2023/07/23 09:42:12;;;;;;;5.20;4.97;;;23.00;52.40;;;;;;6230694;28;20247;-79
2023/07/23 09:45:15;;;;;;;5.67;5.37;;;23.20;52.20;;;;;;6234568;28;20283;-77
2023/07/23 09:48:19;;;;;;;5.87;5.57;;;23.30;52.20;;;;;;6236552;28;20257;-78
2023/07/23 09:51:24;;;;;;;5.73;5.30;;;23.40;52.20;;;;;;6238280;28;20257;-79
2023/07/23 09:54:27;;;;;;;5.40;5.07;;;23.60;51.70;;;;;;6241418;28;20856;-78
2023/07/23 09:57:32;;;;;;;5.37;4.97;;;23.50;51.50;;;;;;6242894;28;20303;-79
2023/07/23 10:00:35;;;;;;;5.97;5.43;;;23.80;52.10;;;;;;6233169;28;20239;-78
2023/07/23 10:03:38;;;;;;;5.83;5.43;;;23.70;51.50;;;;;;6222022;28;20243;-78
2023/07/23 10:06:44;;;;;;;5.40;5.03;;;24.00;52.00;;;;;;6230202;28;20239;-78
2023/07/23 10:09:48;;;;;;;5.30;5.10;;;24.20;51.20;;;;;;6237572;28;20323;-78
2023/07/23 10:12:51;;;;;;;5.77;5.37;;;24.20;51.10;;;;;;6264110;28;20241;-78
2023/07/23 10:15:54;;;;;;;5.73;5.33;;;24.40;51.10;;;;;;6255504;28;20230;-80
2023/07/23 10:18:59;;;;;;;5.60;5.30;;;24.50;50.50;;;;;;6255191;28;20305;-81
2023/07/23 10:22:04;;;;;;;5.80;5.37;;;24.60;50.00;;;;;;6263025;28;20913;-79
2023/07/23 10:25:25;;;;;;;5.83;5.33;;;25.00;50.30;;;;;;6253558;28;20234;-77
2023/07/23 10:28:38;;;;;;;7.53;4.77;;;24.80;50.00;;;;;;6257598;28;20735;-75
2023/07/23 10:31:43;;;;;;;5.13;4.93;;;24.80;48.40;;;;;;6245076;28;20364;-78
2023/07/23 10:34:46;;;;;;;5.90;5.50;;;24.70;48.70;;;;;;6268235;28;20230;-78
2023/07/23 10:38:25;;;;;;;5.40;5.10;;;24.60;48.80;;;;;;6260911;28;20311;-78
2023/07/23 10:41:53;;;;;;;5.43;4.93;;;24.60;49.80;;;;;;6245256;28;20243;-78
2023/07/23 10:45:15;;;;;;;5.33;5.10;;;25.00;48.90;;;;;;6248162;28;20995;-78
2023/07/23 10:48:18;;;;;;;5.70;5.33;;;25.10;48.50;;;;;;6247773;28;20237;-78
2023/07/23 10:51:23;;;;;;;5.60;5.30;;;25.20;48.50;;;;;;6260275;28;20367;-80
2023/07/23 10:54:27;;;;;;;5.40;5.10;;;25.40;48.40;;;;;;6271624;28;20298;-76
2023/07/23 10:57:31;;;;;;;5.97;5.67;;;25.50;48.20;;;;;;6275824;28;20237;-76
2023/07/23 11:00:35;;;;;;;6.10;5.63;;;25.30;48.60;;;;;;6259406;28;20357;-79
2023/07/23 11:03:44;;;;;;;6.07;5.67;;;25.00;48.60;;;;;;6265348;28;20244;-79
2023/07/23 11:06:58;;;;;;;6.57;5.37;;;25.10;49.00;;;;;;6271880;28;20283;-79
2023/07/23 11:10:19;;;;;;;5.33;5.03;;;25.20;48.70;;;;;;6229394;28;21445;-78
2023/07/23 11:13:27;;;;;;;5.63;5.33;;;25.40;48.20;;;;;;6210204;28;20751;-78
2023/07/23 11:16:30;;;;;;;6.60;5.60;;;25.60;49.60;;;;;;6216599;28;20246;-79
2023/07/23 11:19:34;;;;;;;5.63;5.30;;;25.80;48.80;;;;;;6245874;28;20785;-79
2023/07/23 11:22:43;;;;;;;5.37;5.17;;;25.80;48.50;;;;;;6244902;28;20835;-78
2023/07/23 11:25:47;;;;;;;5.83;5.43;;;25.80;48.20;;;;;;6239805;28;20251;-78
2023/07/23 11:28:53;;;;;;;6.27;5.97;;;25.90;48.50;;;;;;6251824;28;20298;-78
2023/07/23 11:31:57;;;;;;;6.17;5.63;;;25.80;49.30;;;;;;6251728;28;20325;-79
2023/07/23 11:35:01;;;;;;;6.10;5.80;;;26.00;48.70;;;;;;6257699;28;20775;-79
2023/07/23 11:38:05;;;;;;;5.87;5.57;;;26.00;47.80;;;;;;6257428;28;20280;-79
2023/07/23 11:41:10;;;;;;;5.50;5.20;;;26.00;48.40;;;;;;6252944;28;20329;-79
2023/07/23 11:44:15;;;;;;;5.33;5.03;;;26.00;47.70;;;;;;6245191;28;20238;-80
2023/07/23 11:47:18;;;;;;;7.43;5.33;;;26.20;47.70;;;;;;6250903;28;20262;-77
2023/07/23 11:50:23;;;;;;;6.53;6.03;;;26.00;47.60;;;;;;6229989;28;20246;-77
2023/07/23 11:53:34;;;;;;;5.40;4.90;;;26.20;47.30;;;;;;6244014;28;20296;-79
2023/07/23 11:56:39;;;;;;;5.30;4.90;;;26.20;47.30;;;;;;6250765;28;20732;-79
2023/07/23 11:59:44;;;;;;;5.43;5.13;;;26.20;46.90;;;;;;6232003;28;20313;-80
2023/07/23 12:02:47;;;;;;;5.23;4.70;;;26.50;45.60;;;;;;6248014;28;20331;-78
2023/07/23 12:05:52;;;;;;;5.30;5.00;;;26.50;45.90;;;;;;6238813;28;20730;-78
2023/07/23 12:08:55;;;;;;;5.37;5.07;;;26.70;44.60;;;;;;6227454;28;20323;-79
2023/07/23 12:11:58;;;;;;;5.03;4.83;;;26.50;44.30;;;;;;6240441;28;20247;-78
2023/07/23 12:15:04;;;;;;;4.83;4.63;;;26.30;45.10;;;;;;6241713;28;20381;-78
2023/07/23 12:18:08;;;;;;;4.80;4.60;;;26.40;45.30;;;;;;6238270;28;20380;-78
2023/07/23 12:21:12;;;;;;;5.10;4.87;;;26.70;45.60;;;;;;6243450;28;20281;-78
2023/07/23 12:24:17;;;;;;;4.80;4.50;;;26.80;44.90;;;;;;6237387;28;20237;-77
2023/07/23 12:27:20;;;;;;;5.00;4.73;;;26.80;44.40;;;;;;6240967;28;20230;-78
2023/07/23 12:30:24;;;;;;;5.50;5.00;;;26.60;44.90;;;;;;6247132;28;20292;-79
2023/07/23 12:33:28;;;;;;;4.87;4.37;;;26.70;45.80;;;;;;6234147;28;20622;-77
2023/07/23 12:36:33;;;;;;;4.23;4.10;;;26.80;44.10;;;;;;6248996;28;20232;-79
2023/07/23 12:39:36;;;;;;;4.37;4.17;;;26.80;43.70;;;;;;6235108;28;20325;-80
2023/07/23 12:42:39;;;;;;;4.50;4.17;;;26.90;42.60;;;;;;6237453;28;20284;-80
2023/07/23 12:45:44;;;;;;;4.30;3.93;;;26.80;43.50;;;;;;6253077;28;20230;-77
2023/07/23 12:48:47;;;;;;;4.13;3.80;;;26.80;42.70;;;;;;6245561;28;20239;-78
2023/07/23 12:51:50;;;;;;;4.07;3.67;;;26.80;42.10;;;;;;6244017;28;20245;-76
2023/07/23 12:54:54;;;;;;;4.27;3.90;;;26.80;42.30;;;;;;6259428;28;20292;-77
2023/07/23 12:57:57;;;;;;;4.90;4.50;;;26.90;42.20;;;;;;6229697;28;20239;-79
2023/07/23 13:01:01;;;;;;;4.20;3.93;;;27.00;43.00;;;;;;6236819;28;20805;-80
2023/07/23 13:04:05;;;;;;;3.90;3.60;;;27.00;42.70;;;;;;6248685;28;20249;-77
2023/07/23 13:07:08;;;;;;;4.23;4.03;;;27.00;42.50;;;;;;6232663;28;20239;-77
2023/07/23 13:10:11;;;;;;;4.37;4.17;;;27.00;41.80;;;;;;6233626;28;20249;-79
2023/07/23 13:13:14;;;;;;;4.50;4.27;;;27.20;41.80;;;;;;6236296;28;20348;-80
2023/07/23 13:16:22;;;;;;;4.23;3.93;;;27.10;40.80;;;;;;6243776;28;20273;-78
2023/07/23 13:19:25;;;;;;;4.27;3.90;;;27.00;40.60;;;;;;6247241;28;20241;-80
2023/07/23 13:22:28;;;;;;;3.97;3.87;;;27.00;40.90;;;;;;6233468;28;20748;-79
2023/07/23 13:25:32;;;;;;;4.40;4.10;;;27.00;41.20;;;;;;6247894;28;20241;-78
2023/07/23 13:28:35;;;;;;;4.43;4.13;;;26.90;41.10;;;;;;6247837;28;20307;-80
2023/07/23 13:31:40;;;;;;;4.63;4.23;;;26.80;41.20;;;;;;6249901;28;20242;-80
2023/07/23 13:34:43;;;;;;;4.80;4.50;;;26.70;40.30;;;;;;6229363;28;21083;-77
2023/07/23 13:37:46;;;;;;;5.20;5.00;;;26.80;40.50;;;;;;6236154;28;20809;-78
2023/07/23 13:40:49;;;;;;;4.93;4.73;;;26.60;41.10;;;;;;6229723;28;20310;-79
2023/07/23 13:43:54;;;;;;;5.13;4.80;;;26.60;40.70;;;;;;6238045;28;20835;-77
2023/07/23 13:46:58;;;;;;;5.33;5.13;;;26.50;40.70;;;;;;6237865;28;20269;-80
2023/07/23 13:50:03;;;;;;;5.23;4.93;;;26.60;40.20;;;;;;6243282;28;20239;-79
2023/07/23 13:53:06;;;;;;;5.17;4.87;;;26.70;40.70;;;;;;6233745;28;20265;-78
2023/07/23 13:56:09;;;;;;;5.20;4.90;;;27.00;40.60;;;;;;6223829;28;20259;-77
2023/07/23 13:59:13;;;;;;;4.70;4.40;;;26.90;40.50;;;;;;6226669;28;20383;-80
2023/07/23 14:02:18;;;;;;;5.40;5.00;;;26.90;40.90;;;;;;6232525;28;20388;-78
2023/07/23 14:05:25;;;;;;;5.00;4.53;;;26.60;40.60;;;;;;6236053;28;20237;-78
2023/07/23 14:08:28;;;;;;;5.07;4.73;;;26.40;40.80;;;;;;6233598;28;20238;-78
2023/07/23 14:11:31;;;;;;;4.60;4.40;;;26.20;41.10;;;;;;6238267;28;20256;-79
2023/07/23 14:14:36;;;;;;;4.17;3.97;;;26.00;41.80;;;;;;6230922;28;20231;-77
2023/07/23 14:17:40;;;;;;;5.67;5.03;;;26.00;41.10;;;;;;6242284;28;20782;-80
2023/07/23 14:20:44;;;;;;;4.60;4.37;;;25.80;41.40;;;;;;6232116;28;20234;-77
2023/07/23 14:23:47;;;;;;;5.13;4.73;;;25.80;41.90;;;;;;6236453;28;20805;-78
2023/07/23 14:26:51;;;;;;;5.10;4.80;;;25.60;41.80;;;;;;6236786;28;20630;-79
2023/07/23 14:29:54;;;;;;;5.73;5.43;;;25.60;41.50;;;;;;6253563;28;20736;-79
2023/07/23 14:32:58;;;;;;;5.77;5.30;;;25.60;40.60;;;;;;6231042;28;20285;-78
2023/07/23 14:36:02;;;;;;;6.63;5.30;;;25.60;40.60;;;;;;6229254;28;20246;-79
2023/07/23 14:39:06;;;;;;;5.40;4.83;;;25.50;40.60;;;;;;6235671;28;20323;-78
2023/07/23 14:42:09;;;;;;;7.00;5.43;;;25.50;40.50;;;;;;6229021;28;20332;-78
2023/07/23 14:45:14;;;;;;;7.83;5.37;;;25.50;41.50;;;;;;6236534;28;20288;-77
2023/07/23 14:48:19;;;;;;;5.50;5.10;;;25.30;41.20;;;;;;6232379;28;20231;-78
2023/07/23 14:51:23;;;;;;;6.17;5.57;;;25.40;41.50;;;;;;6244447;28;20571;-78
2023/07/23 14:54:26;;;;;;;6.23;5.13;;;25.30;42.50;;;;;;6241091;28;20629;-77
2023/07/23 14:57:29;;;;;;;5.70;5.20;;;25.30;42.40;;;;;;6230798;28;20242;-77
2023/07/23 15:00:32;;;;;;;5.40;4.90;;;25.30;42.40;;;;;;6238652;28;20246;-79
2023/07/23 15:03:36;;;;;;;5.40;5.03;;;25.00;43.10;;;;;;6230092;28;20243;-77
2023/07/23 15:06:41;;;;;;;5.93;4.90;;;25.00;43.60;;;;;;6233378;28;20235;-78
2023/07/23 15:09:44;;;;;;;4.80;4.60;;;25.00;43.40;;;;;;6237504;28;20231;-77
2023/07/23 15:12:48;;;;;;;5.70;5.13;;;24.90;44.20;;;;;;6241023;28;20376;-76
2023/07/23 15:15:52;;;;;;;4.90;4.67;;;24.70;44.20;;;;;;6234896;28;20262;-79
2023/07/23 15:18:57;;;;;;;10.33;5.10;;;24.60;44.40;;;;;;6239678;28;20246;-77
2023/07/23 15:22:00;;;;;;;6.40;5.33;;;24.50;45.10;;;;;;6246479;28;20315;-76
2023/07/23 15:25:07;;;;;;;9.27;4.40;;;24.50;45.20;;;;;;6229052;28;20239;-79
2023/07/23 15:28:11;;;;;;;6.13;4.57;;;24.50;45.10;;;;;;6256513;28;20249;-81
2023/07/23 15:31:15;;;;;;;5.23;4.93;;;24.40;45.50;;;;;;6229132;28;20818;-79
2023/07/23 15:34:19;;;;;;;5.03;4.57;;;24.50;45.80;;;;;;6238311;28;20273;-78
2023/07/23 15:37:22;;;;;;;5.17;4.87;;;24.70;45.70;;;;;;6242266;28;20325;-77
2023/07/23 15:40:26;;;;;;;5.77;5.37;;;24.60;45.30;;;;;;6236728;28;20265;-78
2023/07/23 15:43:29;;;;;;;4.93;4.60;;;24.50;45.70;;;;;;6237171;28;20245;-77
2023/07/23 15:46:32;;;;;;;5.50;4.73;;;24.50;45.80;;;;;;6249932;28;20736;-79
2023/07/23 15:49:36;;;;;;;4.27;4.07;;;24.40;46.10;;;;;;6243829;28;20245;-77
2023/07/23 15:52:40;;;;;;;4.70;4.40;;;24.20;46.50;;;;;;6251227;28;20241;-78
2023/07/23 15:55:43;;;;;;;5.77;4.93;;;24.10;47.20;;;;;;6228779;28;20699;-79
2023/07/23 15:58:46;;;;;;;7.17;4.90;;;24.00;47.30;;;;;;6233498;28;20230;-78